Time;durP1;ratioP1;P1;durP2;ratioP2;P2;SDS_P1;SDS_P2;PMS_P1;PMS_P2;Temp;Humidity;BMP_temperature;BMP_pressure;BME280_temperature;BME280_humidity;BME280_pressure;Samples;Min_cycle;Max_cycle;Signal;HPM_P1;HPM_P2
2023/07/07 00:01:01;;;;;;;7.75;4.88;;;;;;;-148.88;95.83;-17125.47;5013026;28;20038;-73
2023/07/07 00:03:26;;;;;;;7.72;5.03;;;;;;;-148.88;95.76;-17125.47;5012992;28;20098;-73
2023/07/07 00:05:52;;;;;;;8.10;5.10;;;;;;;-148.88;95.89;-17125.47;5013072;28;20444;-73
2023/07/07 00:08:17;;;;;;;8.55;4.93;;;;;;;-148.88;96.27;-17125.47;5012955;28;20022;-73
2023/07/07 00:10:43;;;;;;;8.70;4.68;;;;;;;-148.88;96.23;-17125.47;5013140;28;20481;-73
2023/07/07 00:13:10;;;;;;;7.13;5.32;;;;;;;-148.88;96.47;-17125.47;5012795;28;20122;-73
2023/07/07 00:15:35;;;;;;;7.63;5.40;;;;;;;-148.88;97.01;-17125.47;5012881;28;20037;-73
2023/07/07 00:18:01;;;;;;;8.63;5.10;;;;;;;-148.88;96.80;-17125.47;5014099;28;20058;-73
2023/07/07 00:20:26;;;;;;;6.95;5.20;;;;;;;-148.88;97.05;-17125.47;5017340;28;20025;-73
2023/07/07 00:22:51;;;;;;;6.93;5.10;;;;;;;-148.88;96.93;-17125.47;5016836;28;20164;-74
2023/07/07 00:25:17;;;;;;;6.85;5.60;;;;;;;-148.88;97.08;-17125.47;5016682;28;20457;-73
2023/07/07 00:27:42;;;;;;;7.97;5.32;;;;;;;-148.88;98.33;-17125.47;5016575;28;20456;-73
2023/07/07 00:30:09;;;;;;;7.00;5.38;;;;;;;-148.88;98.61;-17125.47;5016552;28;20477;-73
2023/07/07 00:32:35;;;;;;;7.60;5.30;;;;;;;-148.88;99.27;-17125.47;5016441;28;20378;-73
2023/07/07 00:35:01;;;;;;;7.78;5.38;;;;;;;-148.88;98.74;-17125.47;5016537;28;20022;-74
2023/07/07 00:37:26;;;;;;;9.10;5.80;;;;;;;-148.88;98.58;-17125.47;5016801;28;20492;-73
2023/07/07 00:39:51;;;;;;;8.38;5.40;;;;;;;-148.88;100.00;-17125.47;5016282;28;20455;-73
2023/07/07 00:42:17;;;;;;;8.32;5.72;;;;;;;-148.88;100.00;-17125.47;5016302;28;20034;-73
2023/07/07 00:45:04;;;;;;;11.05;5.70;;;;;;;-148.88;100.00;-17125.47;5016606;28;20021;-73
2023/07/07 00:47:30;;;;;;;8.15;5.72;;;;;;;-148.88;100.00;-17125.47;4998583;28;20098;-73
2023/07/07 00:49:56;;;;;;;7.55;5.78;;;;;;;-148.88;100.00;-17125.47;5016171;28;20061;-74
2023/07/07 00:52:21;;;;;;;9.73;6.32;;;;;;;-148.88;100.00;-17125.47;5016018;28;20134;-73
2023/07/07 00:54:46;;;;;;;8.32;5.97;;;;;;;-148.88;100.00;-17125.47;5016143;28;20029;-73
2023/07/07 00:57:12;;;;;;;7.70;5.95;;;;;;;-148.88;100.00;-17125.47;5016160;28;20116;-73
2023/07/07 00:59:41;;;;;;;8.55;6.38;;;;;;;-148.88;100.00;-17125.47;5016174;28;20060;-73
2023/07/07 01:02:12;;;;;;;8.02;6.03;;;;;;;-148.88;100.00;-17125.47;5015917;28;20564;-73
2023/07/07 01:04:42;;;;;;;7.13;6.15;;;;;;;-148.88;100.00;-17125.47;5016214;28;20026;-73
2023/07/07 01:07:16;;;;;;;8.45;6.40;;;;;;;-148.88;100.00;-17125.47;5016126;28;20030;-73
2023/07/07 01:09:42;;;;;;;8.95;6.30;;;;;;;-148.88;100.00;-17125.47;5015820;28;20489;-74
2023/07/07 01:12:13;;;;;;;9.32;6.05;;;;;;;-148.88;100.00;-17125.47;5015963;28;20028;-73
2023/07/07 01:14:43;;;;;;;7.72;5.95;;;;;;;-148.88;100.00;-17125.47;5015717;28;20105;-73
2023/07/07 01:17:35;;;;;;;8.48;6.25;;;;;;;-148.88;100.00;-17125.47;5015640;28;20033;-73
2023/07/07 01:20:12;;;;;;;6.63;5.68;;;;;;;-148.88;100.00;-17125.47;5015834;28;20022;-73
2023/07/07 01:23:12;;;;;;;8.82;5.95;;;;;;;-148.88;100.00;-17125.47;5015655;28;20034;-73
2023/07/07 01:25:58;;;;;;;9.95;6.20;;;;;;;-148.88;100.00;-17125.47;5016008;28;20075;-73
2023/07/07 01:28:54;;;;;;;8.30;5.90;;;;;;;-148.88;100.00;-17125.47;5015351;28;20018;-73
2023/07/07 01:31:28;;;;;;;8.25;5.80;;;;;;;-148.88;100.00;-17125.47;5014606;28;20022;-73
2023/07/07 01:33:57;;;;;;;10.40;5.47;;;;;;;-148.88;100.00;-17125.47;5015440;28;20558;-73
2023/07/07 01:36:22;;;;;;;8.85;5.75;;;;;;;-148.88;100.00;-17125.47;5015516;28;20496;-73
2023/07/07 01:38:48;;;;;;;7.38;5.68;;;;;;;-148.88;100.00;-17125.47;4997799;28;20063;-74
2023/07/07 01:41:25;;;;;;;6.60;5.25;;;;;;;-148.88;100.00;-17125.47;5015447;28;20568;-73
2023/07/07 01:44:41;;;;;;;5.55;4.88;;;;;;;-148.88;100.00;-17125.47;5015168;28;20026;-73
2023/07/07 01:47:15;;;;;;;7.13;4.80;;;;;;;-148.88;100.00;-17125.47;4954760;29;20083;-74
2023/07/07 01:49:53;;;;;;;7.13;4.90;;;;;;;-148.88;100.00;-17125.47;4954695;29;20027;-73
2023/07/07 01:52:40;;;;;;;7.60;4.70;;;;;;;-148.88;100.00;-17125.47;4996325;28;20485;-73
2023/07/07 01:55:17;;;;;;;7.25;4.40;;;;;;;-148.88;100.00;-17125.47;5016579;28;20129;-73
2023/07/07 01:57:47;;;;;;;8.80;4.60;;;;;;;-148.88;100.00;-17125.47;5015870;28;20144;-73
2023/07/07 02:00:14;;;;;;;6.25;4.65;;;;;;;-148.88;100.00;-17125.47;5015084;28;20043;-73
2023/07/07 02:02:39;;;;;;;5.05;4.20;;;;;;;-148.88;100.00;-17125.47;5014874;28;20048;-73
2023/07/07 02:05:05;;;;;;;7.13;4.68;;;;;;;-148.88;100.00;-17125.47;5014921;28;20022;-73
2023/07/07 02:07:31;;;;;;;6.57;4.25;;;;;;;-148.88;100.00;-17125.47;5015064;28;20034;-73
2023/07/07 02:09:56;;;;;;;5.93;3.85;;;;;;;-148.88;100.00;-17125.47;5014887;28;20033;-73
2023/07/07 02:12:21;;;;;;;6.63;4.30;;;;;;;-148.88;100.00;-17125.47;5021312;28;20486;-74
2023/07/07 02:14:47;;;;;;;6.45;3.97;;;;;;;-148.88;100.00;-17125.47;5022722;28;20059;-74
2023/07/07 02:17:15;;;;;;;6.03;4.40;;;;;;;-148.88;100.00;-17125.47;5023592;28;20022;-76
2023/07/07 02:19:41;;;;;;;6.35;4.13;;;;;;;-148.88;100.00;-17125.47;5024992;28;20022;-74
2023/07/07 02:22:06;;;;;;;5.68;4.15;;;;;;;-148.88;100.00;-17125.47;5022505;28;20033;-75
2023/07/07 02:24:32;;;;;;;6.72;3.85;;;;;;;-148.88;100.00;-17125.47;5023661;28;20036;-73
2023/07/07 02:26:57;;;;;;;5.05;3.58;;;;;;;-148.88;100.00;-17125.47;5014535;28;20064;-74
2023/07/07 02:29:22;;;;;;;5.90;3.78;;;;;;;-148.88;100.00;-17125.47;5014574;28;20053;-73
2023/07/07 02:31:48;;;;;;;5.95;3.80;;;;;;;-148.88;100.00;-17125.47;5014276;28;20498;-73
2023/07/07 02:34:13;;;;;;;6.18;3.78;;;;;;;-148.88;100.00;-17125.47;5014213;28;20369;-73
2023/07/07 02:36:38;;;;;;;5.65;3.70;;;;;;;-148.88;100.00;-17125.47;5014167;28;20056;-73
2023/07/07 02:39:07;;;;;;;6.53;3.85;;;;;;;-148.88;100.00;-17125.47;5014033;28;20025;-73
2023/07/07 02:41:32;;;;;;;5.63;4.13;;;;;;;-148.88;100.00;-17125.47;5013633;28;20481;-73
2023/07/07 02:43:58;;;;;;;5.43;3.90;;;;;;;-148.88;100.00;-17125.47;4996356;28;20026;-73
2023/07/07 02:46:24;;;;;;;6.18;4.03;;;;;;;-148.88;100.00;-17125.47;5014032;28;20021;-73
2023/07/07 02:48:49;;;;;;;7.82;3.72;;;;;;;-148.88;100.00;-17125.47;4996364;28;20548;-73
2023/07/07 02:51:14;;;;;;;5.20;3.58;;;;;;;-148.88;100.00;-17125.47;5013926;28;20489;-74
2023/07/07 02:53:40;;;;;;;7.30;3.80;;;;;;;-148.88;100.00;-17125.47;5013826;28;20112;-73
2023/07/07 02:56:05;;;;;;;5.88;4.00;;;;;;;-148.88;100.00;-17125.47;5013746;28;20112;-73
2023/07/07 02:58:31;;;;;;;5.43;3.70;;;;;;;-148.88;100.00;-17125.47;5013834;28;20060;-73
2023/07/07 03:01:18;;;;;;;5.38;3.78;;;;;;;-148.88;100.00;-17125.47;5014024;28;20049;-73
2023/07/07 03:03:47;;;;;;;5.25;3.67;;;;;;;-148.88;100.00;-17125.47;5013900;28;20113;-73
2023/07/07 03:06:16;;;;;;;8.00;3.85;;;;;;;-148.88;100.00;-17125.47;5013736;28;20040;-73
2023/07/07 03:08:42;;;;;;;7.20;4.20;;;;;;;-148.88;100.00;-17125.47;5013514;28;20065;-73
2023/07/07 03:11:10;;;;;;;5.53;4.00;;;;;;;-148.88;100.00;-17125.47;5013901;28;20425;-73
2023/07/07 03:13:36;;;;;;;7.18;3.80;;;;;;;-148.88;100.00;-17125.47;5013498;28;20065;-74
2023/07/07 03:16:23;;;;;;;6.57;4.13;;;;;;;-148.88;100.00;-17125.47;5013728;28;20022;-73
2023/07/07 03:18:51;;;;;;;6.22;4.57;;;;;;;-148.88;100.00;-17125.47;4995755;28;20025;-73
2023/07/07 03:21:19;;;;;;;7.50;4.45;;;;;;;-148.88;100.00;-17125.47;5013457;28;20392;-73
2023/07/07 03:23:44;;;;;;;8.82;4.47;;;;;;;-148.88;100.00;-17125.47;5013310;28;20480;-73
2023/07/07 03:26:12;;;;;;;7.82;4.60;;;;;;;-148.88;100.00;-17125.47;5013374;28;20041;-73
2023/07/07 03:28:38;;;;;;;6.40;4.78;;;;;;;-148.88;100.00;-17125.47;5013344;28;20026;-73
2023/07/07 03:31:12;;;;;;;7.45;5.13;;;;;;;-148.88;100.00;-17125.47;5013478;28;20058;-73
2023/07/07 03:33:39;;;;;;;5.88;4.53;;;;;;;-148.88;100.00;-17125.47;5013323;28;20400;-74
2023/07/07 03:36:05;;;;;;;9.30;4.93;;;;;;;-148.88;100.00;-17125.47;5013309;28;20053;-73
2023/07/07 03:38:31;;;;;;;7.22;4.63;;;;;;;-148.88;100.00;-17125.47;4995844;28;20518;-73
2023/07/07 03:40:56;;;;;;;8.15;4.93;;;;;;;-148.88;100.00;-17125.47;4995573;28;20022;-73
2023/07/07 03:43:22;;;;;;;8.25;4.90;;;;;;;-148.88;100.00;-17125.47;5013160;28;20049;-74
2023/07/07 03:45:47;;;;;;;6.25;4.65;;;;;;;-148.88;100.00;-17125.47;5013938;28;20037;-74
2023/07/07 03:48:13;;;;;;;6.93;4.68;;;;;;;-148.88;100.00;-17125.47;5013194;28;20022;-74
2023/07/07 03:50:38;;;;;;;9.13;5.05;;;;;;;-148.88;100.00;-17125.47;5013121;28;20076;-74
2023/07/07 03:53:03;;;;;;;6.07;4.85;;;;;;;-148.88;100.00;-17125.47;5013939;28;20075;-74
2023/07/07 03:55:29;;;;;;;8.32;4.78;;;;;;;-148.88;100.00;-17125.47;5017176;28;20030;-74
2023/07/07 03:57:55;;;;;;;8.30;4.90;;;;;;;-148.88;100.00;-17125.47;5017078;28;20087;-74
2023/07/07 04:00:20;;;;;;;7.90;5.32;;;;;;;-148.88;100.00;-17125.47;5016999;28;20034;-74
2023/07/07 04:02:45;;;;;;;6.82;4.82;;;;;;;-148.88;100.00;-17125.47;5017118;28;20113;-73
2023/07/07 04:05:11;;;;;;;7.45;5.18;;;;;;;-148.88;100.00;-17125.47;5016964;28;20069;-73
2023/07/07 04:07:36;;;;;;;7.90;5.10;;;;;;;-148.88;100.00;-17125.47;5017025;28;20026;-74
2023/07/07 04:10:03;;;;;;;6.38;4.95;;;;;;;-148.88;100.00;-17125.47;5016816;28;20029;-73
2023/07/07 04:12:29;;;;;;;7.78;4.85;;;;;;;-148.88;100.00;-17125.47;4999107;28;20029;-73
2023/07/07 04:14:54;;;;;;;6.85;5.10;;;;;;;-148.88;100.00;-17125.47;5017316;28;20018;-73
2023/07/07 04:17:19;;;;;;;7.72;4.70;;;;;;;-148.88;100.00;-17125.47;5017388;28;20044;-74
2023/07/07 04:19:45;;;;;;;10.20;5.15;;;;;;;-148.88;100.00;-17125.47;5017043;28;20057;-73
2023/07/07 04:22:10;;;;;;;7.03;5.05;;;;;;;-148.88;100.00;-17125.47;4999208;28;20087;-73
2023/07/07 04:24:35;;;;;;;8.18;5.47;;;;;;;-148.88;100.00;-17125.47;5016620;28;20026;-73
2023/07/07 04:27:01;;;;;;;13.77;5.82;;;;;;;-148.88;100.00;-17125.47;4999077;28;20506;-73
2023/07/07 04:29:26;;;;;;;9.70;5.70;;;;;;;-148.88;100.00;-17125.47;5016892;28;20113;-73
2023/07/07 04:31:52;;;;;;;7.78;6.10;;;;;;;-148.88;100.00;-17125.47;5016365;28;20057;-74
2023/07/07 04:34:17;;;;;;;8.55;6.20;;;;;;;-148.88;100.00;-17125.47;5016427;28;20476;-73
2023/07/07 04:36:43;;;;;;;7.40;6.13;;;;;;;-148.88;100.00;-17125.47;5016550;28;20030;-74
2023/07/07 04:39:08;;;;;;;8.15;6.65;;;;;;;-148.88;100.00;-17125.47;5016878;28;20030;-73
2023/07/07 04:41:34;;;;;;;10.05;6.47;;;;;;;-148.88;100.00;-17125.47;5016517;28;20127;-73
2023/07/07 04:44:00;;;;;;;8.75;6.78;;;;;;;-148.88;100.00;-17125.47;5016275;28;20030;-74
2023/07/07 04:46:28;;;;;;;7.78;6.50;;;;;;;-148.88;100.00;-17125.47;5016303;28;20484;-73
2023/07/07 04:48:54;;;;;;;9.50;6.10;;;;;;;-148.88;100.00;-17125.47;4998791;28;20484;-74
2023/07/07 04:51:19;;;;;;;9.18;6.00;;;;;;;-148.88;100.00;-17125.47;5016284;28;20041;-74
2023/07/07 04:53:45;;;;;;;7.15;6.10;;;;;;;-148.88;100.00;-17125.47;5016442;28;20026;-73
2023/07/07 04:56:17;;;;;;;7.53;6.00;;;;;;;-148.88;100.00;-17125.47;5016284;28;20499;-74
2023/07/07 04:58:43;;;;;;;7.82;6.35;;;;;;;-148.88;100.00;-17125.47;5016389;28;20026;-73
2023/07/07 05:01:08;;;;;;;9.23;6.40;;;;;;;-148.88;100.00;-17125.47;5015979;28;20092;-73
2023/07/07 05:03:35;;;;;;;10.75;6.40;;;;;;;-148.88;100.00;-17125.47;4997960;28;20048;-75
2023/07/07 05:06:03;;;;;;;8.57;6.20;;;;;;;-148.88;100.00;-17125.47;5015948;28;20026;-76
2023/07/07 05:08:33;;;;;;;11.55;7.30;;;;;;;-148.88;100.00;-17125.47;5015987;28;20112;-75
2023/07/07 05:10:59;;;;;;;8.20;6.47;;;;;;;-148.88;100.00;-17125.47;5016096;28;20334;-74
2023/07/07 05:13:25;;;;;;;11.82;6.47;;;;;;;-148.88;100.00;-17125.47;5016205;28;20028;-74
2023/07/07 05:16:00;;;;;;;8.80;6.22;;;;;;;-148.88;100.00;-17125.47;5016213;28;20030;-74
2023/07/07 05:18:26;;;;;;;7.70;5.68;;;;;;;-148.88;100.00;-17125.47;5015946;28;20068;-75
2023/07/07 05:20:52;;;;;;;8.65;6.50;;;;;;;-148.88;100.00;-17125.47;4997876;28;20049;-74
2023/07/07 05:23:17;;;;;;;10.05;6.90;;;;;;;-148.88;100.00;-17125.47;5015862;28;20037;-74
2023/07/07 05:25:45;;;;;;;10.13;6.03;;;;;;;-148.88;100.00;-17125.47;5016146;28;20064;-74
2023/07/07 05:28:10;;;;;;;8.20;6.47;;;;;;;-148.88;100.00;-17125.47;4997867;28;20028;-74
2023/07/07 05:30:38;;;;;;;8.70;6.43;;;;;;;-148.88;100.00;-17125.47;5015850;28;20026;-73
2023/07/07 05:33:03;;;;;;;8.15;6.47;;;;;;;-148.88;100.00;-17125.47;5015335;28;20113;-74
2023/07/07 05:35:29;;;;;;;9.82;5.95;;;;;;;-148.88;100.00;-17125.47;5015322;28;20061;-74
2023/07/07 05:37:54;;;;;;;11.13;6.20;;;;;;;-148.88;100.00;-17125.47;5015329;28;20030;-74
2023/07/07 05:40:19;;;;;;;9.85;5.90;;;;;;;-148.88;100.00;-17125.47;5015134;28;20033;-74
2023/07/07 05:42:45;;;;;;;9.30;6.10;;;;;;;-148.88;100.00;-17125.47;5015108;28;20045;-74
2023/07/07 05:45:10;;;;;;;9.23;5.63;;;;;;;-148.88;100.00;-17125.47;5015513;28;20064;-75
2023/07/07 05:47:35;;;;;;;12.55;6.25;;;;;;;-148.88;100.00;-17125.47;5015569;28;20053;-74
2023/07/07 05:50:01;;;;;;;9.00;5.63;;;;;;;-148.88;100.00;-17125.47;5014995;28;20022;-74
2023/07/07 05:52:26;;;;;;;11.98;5.47;;;;;;;-148.88;100.00;-17125.47;5014948;28;20388;-74
2023/07/07 05:54:53;;;;;;;13.15;5.57;;;;;;;-148.88;100.00;-17125.47;5015029;28;20047;-74
2023/07/07 05:57:18;;;;;;;7.53;4.75;;;;;;;-148.88;100.00;-17125.47;5014917;28;20467;-74
2023/07/07 05:59:43;;;;;;;6.03;4.15;;;;;;;-148.88;100.00;-17125.47;5014783;28;20129;-74
2023/07/07 06:02:10;;;;;;;7.20;4.22;;;;;;;-148.88;100.00;-17125.47;5014960;28;20025;-74
2023/07/07 06:04:36;;;;;;;6.95;4.65;;;;;;;-148.88;100.00;-17125.47;4997382;28;20097;-75
2023/07/07 06:07:01;;;;;;;7.43;4.20;;;;;;;-148.88;100.00;-17125.47;5015013;28;20157;-74
2023/07/07 06:09:26;;;;;;;5.68;4.13;;;;;;;-148.88;100.00;-17125.47;5014697;28;20030;-74
2023/07/07 06:11:52;;;;;;;5.22;4.03;;;;;;;-148.88;100.00;-17125.47;5014593;28;20404;-74
2023/07/07 06:14:17;;;;;;;5.82;3.92;;;;;;;-148.88;100.00;-17125.47;5014757;28;20499;-74
2023/07/07 06:16:42;;;;;;;6.38;3.55;;;;;;;-148.88;100.00;-17125.47;5013903;28;20100;-74
2023/07/07 06:19:08;;;;;;;6.65;3.40;;;;;;;-148.88;100.00;-17125.47;5014490;28;20124;-74
2023/07/07 06:21:33;;;;;;;5.13;3.30;;;;;;;-148.88;100.00;-17125.47;4996828;28;20117;-74
2023/07/07 06:23:58;;;;;;;5.78;3.33;;;;;;;-148.88;100.00;-17125.47;5014416;28;20076;-74
2023/07/07 06:26:24;;;;;;;4.55;3.00;;;;;;;-148.88;100.00;-17125.47;5014382;28;20022;-74
2023/07/07 06:28:49;;;;;;;4.88;3.33;;;;;;;-148.88;100.00;-17125.47;5014405;28;20029;-73
2023/07/07 06:31:15;;;;;;;6.80;3.05;;;;;;;-148.88;100.00;-17125.47;5014368;28;20473;-74
2023/07/07 06:33:42;;;;;;;7.38;2.95;;;;;;;-148.88;100.00;-17125.47;5014248;28;20032;-74
2023/07/07 06:36:08;;;;;;;8.57;2.70;;;;;;;-148.88;100.00;-17125.47;5014220;28;20435;-74
2023/07/07 06:38:33;;;;;;;5.75;2.80;;;;;;;-148.88;100.00;-17125.47;4996455;28;20488;-73
2023/07/07 06:40:58;;;;;;;6.53;3.00;;;;;;;-148.88;100.00;-17125.47;5014381;28;20032;-73
2023/07/07 06:43:24;;;;;;;6.18;3.40;;;;;;;-148.88;100.00;-17125.47;4996802;28;20025;-74
2023/07/07 06:45:53;;;;;;;4.60;2.80;;;;;;;-148.88;100.00;-17125.47;5014070;28;20108;-73
2023/07/07 06:48:19;;;;;;;5.53;2.55;;;;;;;-148.88;100.00;-17125.47;5013986;28;20030;-73
2023/07/07 06:50:44;;;;;;;6.15;2.90;;;;;;;-148.88;99.35;-17125.47;5013954;28;20024;-73
2023/07/07 06:53:10;;;;;;;5.85;2.70;;;;;;;-148.88;99.09;-17125.47;5013851;28;20476;-74
2023/07/07 06:55:36;;;;;;;4.55;2.50;;;;;;;-148.88;98.20;-17125.47;5013961;28;20029;-74
2023/07/07 06:58:01;;;;;;;7.18;2.65;;;;;;;-148.88;96.35;-17125.47;4996145;28;20091;-74
2023/07/07 07:00:28;;;;;;;4.18;2.58;;;;;;;-148.88;94.90;-17125.47;5013697;28;20117;-74
2023/07/07 07:02:53;;;;;;;4.88;2.20;;;;;;;-148.88;93.60;-17125.47;5013919;28;20404;-74
2023/07/07 07:05:19;;;;;;;5.30;2.42;;;;;;;-148.88;93.63;-17125.47;5013640;28;20026;-75
2023/07/07 07:07:44;;;;;;;4.95;2.35;;;;;;;-148.88;92.31;-17125.47;5013686;28;20033;-73
2023/07/07 07:10:10;;;;;;;5.80;2.88;;;;;;;-148.88;93.17;-17125.47;5013509;28;20033;-74
2023/07/07 07:12:36;;;;;;;6.50;2.97;;;;;;;-148.88;90.93;-17125.47;5013701;28;20033;-74
2023/07/07 07:15:01;;;;;;;6.47;2.38;;;;;;;-148.88;91.83;-17125.47;5013563;28;20028;-75
2023/07/07 07:17:26;;;;;;;5.55;2.00;;;;;;;-148.88;90.41;-17125.47;5013528;28;20024;-74
2023/07/07 07:19:52;;;;;;;3.75;2.08;;;;;;;-148.88;91.92;-17125.47;5013817;28;20079;-74
2023/07/07 07:22:18;;;;;;;3.50;2.13;;;;;;;-148.88;87.30;-17125.47;5013629;28;20416;-74
2023/07/07 07:24:43;;;;;;;5.95;2.40;;;;;;;-148.88;87.82;-17125.47;5013584;28;20021;-74
2023/07/07 07:27:09;;;;;;;4.50;2.10;;;;;;;-148.88;87.13;-17125.47;5013352;28;20025;-75
2023/07/07 07:29:34;;;;;;;4.97;2.03;;;;;;;-148.88;87.19;-17125.47;5013656;28;20029;-75
2023/07/07 07:32:00;;;;;;;4.88;2.00;;;;;;;-148.88;85.44;-17125.47;5013835;28;20121;-74
2023/07/07 07:34:29;;;;;;;5.15;2.25;;;;;;;-148.88;85.03;-17125.47;5013296;28;20030;-75
2023/07/07 07:36:58;;;;;;;4.53;2.45;;;;;;;-148.88;85.55;-17125.47;5013566;28;20087;-75
2023/07/07 07:39:24;;;;;;;3.30;1.95;;;;;;;-148.88;83.49;-17125.47;5013419;28;20049;-75
2023/07/07 07:41:51;;;;;;;5.60;2.13;;;;;;;-148.88;84.99;-17125.47;5013523;28;20461;-74
2023/07/07 07:44:19;;;;;;;3.95;2.15;;;;;;;-148.88;83.46;-17125.47;5013177;28;20587;-74
2023/07/07 07:46:46;;;;;;;3.53;1.90;;;;;;;-148.88;81.08;-17125.47;5013146;28;20129;-75
2023/07/07 07:49:12;;;;;;;4.30;2.20;;;;;;;-148.88;86.13;-17125.47;5013136;28;20460;-74
2023/07/07 07:51:39;;;;;;;3.40;1.95;;;;;;;-148.88;81.21;-17125.47;5013309;28;20022;-74
2023/07/07 07:54:06;;;;;;;3.35;1.80;;;;;;;-148.88;81.14;-17125.47;5013108;28;20125;-74
2023/07/07 07:56:31;;;;;;;7.60;2.03;;;;;;;-148.88;80.57;-17125.47;5013525;28;20065;-74
2023/07/07 07:58:57;;;;;;;3.75;1.67;;;;;;;-148.88;79.31;-17125.47;5013855;28;20056;-74
2023/07/07 08:01:22;;;;;;;4.03;2.10;;;;;;;-148.88;78.44;-17125.47;5013157;28;20554;-74
2023/07/07 08:03:47;;;;;;;3.63;1.67;;;;;;;-148.88;79.86;-17125.47;5013534;28;20026;-74
2023/07/07 08:06:13;;;;;;;5.03;2.15;;;;;;;-148.88;77.19;-17125.47;5013141;28;20037;-73
2023/07/07 08:08:38;;;;;;;5.20;2.03;;;;;;;-148.88;72.26;-17125.47;5013118;28;20021;-74
2023/07/07 08:11:04;;;;;;;2.85;1.70;;;;;;;-148.88;70.42;-17125.47;5013253;28;20026;-74
2023/07/07 08:13:31;;;;;;;4.35;1.83;;;;;;;-148.88;74.33;-17125.47;5013078;28;20117;-74
2023/07/07 08:15:56;;;;;;;3.33;1.50;;;;;;;-148.88;70.89;-17125.47;5013055;28;20030;-74
2023/07/07 08:18:22;;;;;;;2.33;1.50;;;;;;;-148.88;71.41;-17125.47;5012987;28;20021;-74
2023/07/07 08:20:47;;;;;;;5.40;1.55;;;;;;;-148.88;68.74;-17125.47;5012934;28;20041;-74
2023/07/07 08:23:12;;;;;;;4.20;1.70;;;;;;;-148.88;69.78;-17125.47;5012906;28;20079;-75
2023/07/07 08:25:38;;;;;;;3.40;1.73;;;;;;;-148.88;68.58;-17125.47;5013225;28;20041;-74
2023/07/07 08:28:03;;;;;;;5.18;1.60;;;;;;;-148.88;68.27;-17125.47;5013098;28;20076;-74
2023/07/07 08:30:29;;;;;;;3.55;1.40;;;;;;;-148.88;67.27;-17125.47;5013145;28;20014;-74
2023/07/07 08:32:54;;;;;;;2.75;1.70;;;;;;;-148.88;63.17;-17125.47;5013234;28;20029;-74
2023/07/07 08:35:20;;;;;;;4.22;1.85;;;;;;;-148.88;70.08;-17125.47;5013147;28;20026;-74
2023/07/07 08:37:45;;;;;;;3.72;1.73;;;;;;;-148.88;65.11;-17125.47;5012833;28;20041;-74
2023/07/07 08:40:17;;;;;;;2.70;1.50;;;;;;;-148.88;64.83;-17125.47;5015444;28;20029;-75
2023/07/07 08:42:45;;;;;;;2.85;1.48;;;;;;;-148.88;63.18;-17125.47;5016462;28;20034;-74
2023/07/07 08:45:17;;;;;;;4.78;1.67;;;;;;;-148.88;67.16;-17125.47;5016309;28;20022;-74
2023/07/07 08:47:55;;;;;;;3.22;1.45;;;;;;;-148.88;56.93;-17125.47;5016392;28;20034;-74
2023/07/07 08:50:49;;;;;;;5.15;1.77;;;;;;;-148.88;58.12;-17125.47;5016292;28;20068;-74
2023/07/07 08:53:32;;;;;;;2.30;1.45;;;;;;;-148.88;62.17;-17125.47;5016249;28;20447;-74
2023/07/07 08:56:03;;;;;;;3.30;1.27;;;;;;;-148.88;55.82;-17125.47;5016501;28;20034;-76
2023/07/07 08:58:37;;;;;;;2.65;1.20;;;;;;;-148.88;56.75;-17125.47;5016409;28;20101;-76
2023/07/07 09:01:19;;;;;;;2.50;1.48;;;;;;;-148.88;53.46;-17125.47;5016338;28;20058;-75
2023/07/07 09:04:19;;;;;;;4.00;1.50;;;;;;;-148.88;52.88;-17125.47;5016370;28;20030;-75
2023/07/07 09:06:52;;;;;;;3.10;1.50;;;;;;;-148.88;47.91;-17125.47;5000396;28;20092;-75
2023/07/07 09:09:42;;;;;;;3.45;1.58;;;;;;;-148.88;47.40;-17125.47;5016133;28;20025;-76
2023/07/07 09:12:38;;;;;;;2.47;1.20;;;;;;;-148.88;49.86;-17125.47;5016497;28;20392;-74
2023/07/07 09:15:31;;;;;;;3.10;1.60;;;;;;;-148.88;46.77;-17125.47;5015864;28;20395;-76
2023/07/07 09:18:07;;;;;;;3.45;1.60;;;;;;;-148.88;47.46;-17125.47;5014991;28;20092;-77
2023/07/07 09:20:36;;;;;;;3.95;1.50;;;;;;;-148.88;47.73;-17125.47;5015883;28;20053;-76
2023/07/07 09:23:24;;;;;;;2.80;1.40;;;;;;;-148.88;50.39;-17125.47;4998038;28;20030;-76
2023/07/07 09:26:01;;;;;;;2.90;1.60;;;;;;;-148.88;48.54;-17125.47;5015896;28;20029;-76
2023/07/07 09:28:31;;;;;;;2.35;1.40;;;;;;;-148.88;48.46;-17125.47;5015878;28;20061;-76
2023/07/07 09:31:14;;;;;;;4.95;1.60;;;;;;;-148.88;46.26;-17125.47;5015602;28;20030;-76
2023/07/07 09:33:39;;;;;;;2.83;1.50;;;;;;;-148.88;49.51;-17125.47;4998270;28;20030;-76
2023/07/07 09:36:07;;;;;;;4.63;1.63;;;;;;;-148.88;45.74;-17125.47;5015790;28;20028;-76
2023/07/07 09:41:13;;;;;;;2.65;1.42;;;;;;;-148.88;45.56;-17125.47;5033575;28;20053;-75
2023/07/07 09:44:10;;;;;;;3.50;1.60;;;;;;;-148.88;45.45;-17125.47;5035275;28;20025;-75
2023/07/07 09:46:46;;;;;;;3.55;1.70;;;;;;;-148.88;44.10;-17125.47;5035396;28;20104;-77
2023/07/07 09:49:38;;;;;;;2.95;1.70;;;;;;;-148.88;45.51;-17125.47;5036371;28;20112;-80
2023/07/07 09:52:16;;;;;;;4.53;1.75;;;;;;;-148.88;42.88;-17125.47;5034529;28;20025;-78
2023/07/07 09:54:42;;;;;;;2.75;1.63;;;;;;;-148.88;43.58;-17125.47;5075970;22;20128;-86
2023/07/07 09:57:34;;;;;;;3.83;1.80;;;;;;;-148.88;42.51;-17125.47;5037107;28;20063;-86
2023/07/07 10:00:03;;;;;;;3.97;1.70;;;;;;;-148.88;41.81;-17125.47;5036949;28;20021;-86
2023/07/07 10:02:29;;;;;;;4.07;1.52;;;;;;;-148.88;42.04;-17125.47;5037570;28;20111;-87
2023/07/07 10:04:59;;;;;;;2.60;1.60;;;;;;;-148.88;39.25;-17125.47;5036908;28;20029;-86
2023/07/07 10:07:26;;;;;;;5.32;1.80;;;;;;;-148.88;41.44;-17125.47;5054681;28;20087;-86
2023/07/07 10:09:52;;;;;;;4.32;1.88;;;;;;;-148.88;39.12;-17125.47;5054663;28;20044;-87
2023/07/07 10:12:17;;;;;;;4.28;1.67;;;;;;;-148.88;41.73;-17125.47;5036648;28;20423;-86
2023/07/07 10:14:45;;;;;;;3.08;1.60;;;;;;;-148.88;42.19;-17125.47;5054667;28;20047;-89
2023/07/07 10:17:13;;;;;;;3.70;1.70;;;;;;;-148.88;39.94;-17125.47;5036768;28;20507;-86
2023/07/07 10:19:52;;;;;;;4.88;1.83;;;;;;;-148.88;40.46;-17125.47;5036487;28;20029;-87
2023/07/07 10:22:18;;;;;;;4.70;1.88;;;;;;;-148.88;41.59;-17125.47;5054666;28;20048;-86
2023/07/07 10:24:43;;;;;;;4.80;1.63;;;;;;;-148.88;40.62;-17125.47;5036846;28;20056;-87
2023/07/07 10:27:16;;;;;;;3.83;2.00;;;;;;;-148.88;41.43;-17125.47;5036756;28;20027;-87
2023/07/07 10:29:42;;;;;;;3.67;1.80;;;;;;;-148.88;39.41;-17125.47;5036464;28;20021;-86
2023/07/07 10:32:14;;;;;;;3.63;1.70;;;;;;;-148.88;39.95;-17125.47;5036576;28;20056;-87
2023/07/07 10:34:44;;;;;;;2.13;1.30;;;;;;;-148.88;40.00;-17125.47;5036374;28;20116;-87
2023/07/07 10:37:23;;;;;;;2.72;1.70;;;;;;;-148.88;37.47;-17125.47;5053992;28;20053;-86
2023/07/07 10:39:51;;;;;;;3.92;1.90;;;;;;;-148.88;37.75;-17125.47;5054185;28;20032;-85
2023/07/07 10:42:17;;;;;;;3.95;1.80;;;;;;;-148.88;40.15;-17125.47;5053992;28;20036;-86
2023/07/07 10:44:42;;;;;;;2.67;1.70;;;;;;;-148.88;37.77;-17125.47;5036161;28;20025;-85
2023/07/07 10:47:09;;;;;;;3.92;1.92;;;;;;;-148.88;36.22;-17125.47;5053816;28;20040;-85
2023/07/07 10:49:35;;;;;;;3.88;2.13;;;;;;;-148.88;37.47;-17125.47;5053750;28;20043;-85
2023/07/07 10:52:35;;;;;;;3.65;1.50;;;;;;;-148.88;37.14;-17125.47;5054446;28;20029;-86
2023/07/07 10:55:21;;;;;;;3.17;1.70;;;;;;;-148.88;38.94;-17125.47;5054067;28;20503;-86
2023/07/07 10:58:08;;;;;;;5.55;2.17;;;;;;;-148.88;37.63;-17125.47;5053760;28;20082;-85
2023/07/07 11:01:07;;;;;;;4.35;1.70;;;;;;;-148.88;36.78;-17125.47;5035886;28;20032;-84
2023/07/07 11:03:48;;;;;;;3.42;1.70;;;;;;;-148.88;35.82;-17125.47;5053238;28;20060;-84
2023/07/07 11:06:44;;;;;;;4.07;1.60;;;;;;;-148.88;34.09;-17125.47;5035835;28;20056;-85
2023/07/07 11:09:12;;;;;;;3.28;1.67;;;;;;;-148.88;35.90;-17125.47;5053923;28;20108;-85
2023/07/07 11:11:53;;;;;;;2.97;1.70;;;;;;;-148.88;32.97;-17125.47;5053535;28;20052;-86
2023/07/07 11:14:40;;;;;;;7.07;2.00;;;;;;;-148.88;34.66;-17125.47;5035713;28;20021;-85
2023/07/07 11:17:26;;;;;;;2.70;1.42;;;;;;;-148.88;35.34;-17125.47;5053425;28;20036;-87